METAR AND TAF INFORMATION
METAR FOR LTBG
ADDS - METARS form results

(0249 UTC 21 May 2019)
Data provider http://aviationweather.gov/metar/data/
 
Forecast for: LTBG (BANDIRMA (CIV/AF, TR)
Text: TAF LTBG 210140Z 2103/2112 VRB02KT CAVOK
Forecast period: 0300 to 1200 UTC 21 May 2019
Forecast type: FROM: standard forecast or significant change
Winds: variable direction winds at 2 MPH (2 knots; 1.0 m/s)
Visibility: 6 or more miles 10+ km)
Ceiling: unknown
Clouds: missing
Weather: NSW  (no significant weather)

 AIRPORT MAP

 RUNWAY INFORMATION
Runway 18 Runway length 9865 ft Runway width 147 ft
Runway elevation 170 ft Runway displaced threshold 0 ft Runway heading 181
Runway 36 Runway length 9865 ft Runway width 147 ft
Runway elevation 138 ft Runway displaced threshold 0 ft Runway heading 1

 AIRPORT FREQUENCIES
Type APP Name APP Frequency 122.1 MHZ
Type ATIS Name INFO Frequency 38.92 MHZ
Type GND Name GND Frequency 25.125 MHZ
Type TWR Name TWR Frequency 122.1 MHZ

 AIRPORT NEAR NAVIGATION AIDS
Type TACAN Name Bandirma Frequency 111000 KHZ



>